createdAt,value
2023-02-17T00:01:32.836Z,5.97
2023-02-17T00:04:02.365Z,6.30
2023-02-17T00:06:32.300Z,6.60
2023-02-17T00:09:02.937Z,7.47
2023-02-17T00:11:31.394Z,6.32
2023-02-17T00:14:00.400Z,7.53
2023-02-17T00:16:30.446Z,7.25
2023-02-17T00:19:00.561Z,6.90
2023-02-17T00:21:32.196Z,6.38
2023-02-17T00:24:02.390Z,7.85
2023-02-17T00:26:31.460Z,7.13
2023-02-17T00:29:00.215Z,6.97
2023-02-17T00:31:28.723Z,7.72
2023-02-17T00:33:57.724Z,8.32
2023-02-17T00:36:27.644Z,7.43
2023-02-17T00:38:58.006Z,6.00
2023-02-17T00:41:28.589Z,7.30
2023-02-17T00:43:57.382Z,7.47
2023-02-17T00:46:27.920Z,6.47
2023-02-17T00:48:56.408Z,7.10
2023-02-17T00:51:25.807Z,7.28
2023-02-17T00:53:54.303Z,6.55
2023-02-17T00:56:22.676Z,6.90
2023-02-17T00:58:52.575Z,6.10
2023-02-17T01:01:20.938Z,7.30
2023-02-17T01:03:49.485Z,7.20
2023-02-17T01:06:24.746Z,7.22
2023-02-17T01:08:53.606Z,7.75
2023-02-17T01:11:23.403Z,7.15
2023-02-17T01:13:53.733Z,8.35
2023-02-17T01:16:25.037Z,8.63
2023-02-17T01:18:54.022Z,7.80
2023-02-17T01:21:24.666Z,7.93
2023-02-17T01:23:55.297Z,7.38
2023-02-17T01:26:26.198Z,8.55
2023-02-17T01:28:56.873Z,8.32
2023-02-17T01:31:27.238Z,7.75
2023-02-17T01:33:58.050Z,8.75
2023-02-17T01:36:26.851Z,8.65
2023-02-17T01:38:55.439Z,8.48
2023-02-17T01:41:26.928Z,9.25
2023-02-17T01:44:16.103Z,8.52
2023-02-17T01:46:46.089Z,8.38
2023-02-17T01:49:28.535Z,7.63
2023-02-17T01:52:03.853Z,8.20
2023-02-17T01:54:36.437Z,6.90
2023-02-17T01:57:06.315Z,7.00
2023-02-17T01:59:36.233Z,7.22
2023-02-17T02:02:07.057Z,7.57
2023-02-17T02:04:40.539Z,7.40
2023-02-17T02:07:15.652Z,6.35
2023-02-17T02:09:49.641Z,6.45
2023-02-17T02:12:20.635Z,6.25
2023-02-17T02:14:52.091Z,6.68
2023-02-17T02:17:34.922Z,6.38
2023-02-17T02:20:43.432Z,6.15
2023-02-17T02:23:51.889Z,6.10
2023-02-17T02:26:44.142Z,5.07
2023-02-17T02:29:37.801Z,4.82
2023-02-17T02:32:38.384Z,5.15
2023-02-17T02:35:13.266Z,4.40
2023-02-17T02:37:47.039Z,4.55
2023-02-17T02:40:17.841Z,4.03
2023-02-17T02:42:47.107Z,4.72
2023-02-17T02:45:18.548Z,4.43
2023-02-17T02:47:51.021Z,4.57
2023-02-17T02:50:22.700Z,4.47
2023-02-17T02:53:02.998Z,4.47
2023-02-17T02:55:44.958Z,4.25
2023-02-17T02:58:20.116Z,5.10
2023-02-17T03:00:58.036Z,5.13
2023-02-17T03:03:36.469Z,4.40
2023-02-17T03:06:11.808Z,5.03
2023-02-17T03:08:43.992Z,4.13
2023-02-17T03:11:12.641Z,4.80
2023-02-17T03:13:42.428Z,5.05
2023-02-17T03:16:13.121Z,4.68
2023-02-17T03:18:43.277Z,3.85
2023-02-17T03:21:16.573Z,3.45
2023-02-17T03:23:45.102Z,3.38
2023-02-17T03:26:13.580Z,3.90
2023-02-17T03:28:42.053Z,3.22
2023-02-17T03:31:10.599Z,3.72
2023-02-17T03:33:39.111Z,3.25
2023-02-17T03:36:09.467Z,3.25
2023-02-17T03:38:37.938Z,2.97
2023-02-17T03:41:06.495Z,2.78
2023-02-17T03:43:35.380Z,3.53
2023-02-17T03:46:06.759Z,3.40
2023-02-17T03:48:35.652Z,3.30
2023-02-17T03:51:16.506Z,3.75
2023-02-17T03:53:45.640Z,3.67
2023-02-17T03:56:15.092Z,2.90
2023-02-17T03:58:44.160Z,2.60
2023-02-17T04:01:14.137Z,3.10
2023-02-17T04:03:43.228Z,3.35
2023-02-17T04:06:13.344Z,2.50
2023-02-17T04:08:42.126Z,3.80
2023-02-17T04:11:11.550Z,3.92
2023-02-17T04:13:40.287Z,4.03
2023-02-17T04:16:10.085Z,2.97
2023-02-17T04:18:39.490Z,4.13
2023-02-17T04:21:08.484Z,2.80
2023-02-17T04:23:38.605Z,3.03
2023-02-17T04:26:08.238Z,3.30
2023-02-17T04:28:41.314Z,2.00
2023-02-17T04:31:10.483Z,3.13
2023-02-17T04:33:39.155Z,4.32
2023-02-17T04:36:08.205Z,4.10
2023-02-17T04:38:38.187Z,3.60
2023-02-17T04:41:07.853Z,3.78
2023-02-17T04:43:36.279Z,4.40
2023-02-17T04:46:05.240Z,4.85
2023-02-17T04:48:33.896Z,4.03
2023-02-17T04:51:02.693Z,4.03
2023-02-17T04:53:31.073Z,3.05
2023-02-17T04:56:00.855Z,4.22
2023-02-17T04:58:29.323Z,3.67
2023-02-17T05:01:01.951Z,3.67
2023-02-17T05:03:30.423Z,3.70
2023-02-17T05:05:59.465Z,4.53
2023-02-17T05:08:28.426Z,4.00
2023-02-17T05:10:56.770Z,4.97
2023-02-17T05:13:27.552Z,5.15
2023-02-17T05:15:55.975Z,5.20
2023-02-17T05:18:24.456Z,5.38
2023-02-17T05:20:53.713Z,3.55
2023-02-17T05:23:22.195Z,4.60
2023-02-17T05:25:50.742Z,3.97
2023-02-17T05:28:19.125Z,4.57
2023-02-17T05:30:50.095Z,5.05
2023-02-17T05:33:19.199Z,4.43
2023-02-17T05:35:47.582Z,5.05
2023-02-17T05:38:16.136Z,4.70
2023-02-17T05:40:44.534Z,5.40
2023-02-17T05:43:13.205Z,5.43
2023-02-17T05:45:41.803Z,4.50
2023-02-17T05:48:11.562Z,5.00
2023-02-17T05:50:39.945Z,4.80
2023-02-17T05:53:08.483Z,5.07
2023-02-17T05:55:36.948Z,5.03
2023-02-17T05:58:05.430Z,4.78
2023-02-17T06:00:34.249Z,4.32
2023-02-17T06:03:03.635Z,5.20
2023-02-17T06:05:33.435Z,5.03
2023-02-17T06:08:01.985Z,5.60
2023-02-17T06:10:31.752Z,5.15
2023-02-17T06:13:00.259Z,5.10
2023-02-17T06:15:29.960Z,5.65
2023-02-17T06:17:58.263Z,5.15
2023-02-17T06:20:26.842Z,5.10
2023-02-17T06:22:56.613Z,5.20
2023-02-17T06:25:25.004Z,5.20
2023-02-17T06:27:54.874Z,4.40
2023-02-17T06:30:23.365Z,5.47
2023-02-17T06:32:52.108Z,5.22
2023-02-17T06:35:20.538Z,5.80
2023-02-17T06:37:48.865Z,4.97
2023-02-17T06:40:19.455Z,4.97
2023-02-17T06:42:48.258Z,5.82
2023-02-17T06:45:16.781Z,5.78
2023-02-17T06:47:45.248Z,5.35
2023-02-17T06:50:15.015Z,5.35
2023-02-17T06:52:46.469Z,4.95
2023-02-17T06:55:14.886Z,4.70
2023-02-17T06:57:44.827Z,4.72
2023-02-17T07:00:13.891Z,4.45
2023-02-17T07:02:42.588Z,4.80
2023-02-17T07:05:11.090Z,4.43
2023-02-17T07:07:39.467Z,4.50
2023-02-17T07:10:09.402Z,5.15
2023-02-17T07:12:37.823Z,4.13
2023-02-17T07:15:11.902Z,4.22
2023-02-17T07:17:41.062Z,4.88
2023-02-17T07:20:10.487Z,5.50
2023-02-17T07:22:40.096Z,4.43
2023-02-17T07:25:09.352Z,4.63
2023-02-17T07:27:38.295Z,3.58
2023-02-17T07:30:09.596Z,5.00
2023-02-17T07:32:38.325Z,5.00
2023-02-17T07:35:07.410Z,4.18
2023-02-17T07:37:36.047Z,5.55
2023-02-17T07:40:06.570Z,6.32
2023-02-17T07:42:35.045Z,8.38
2023-02-17T07:45:03.367Z,6.70
2023-02-17T07:47:33.436Z,6.28
2023-02-17T07:50:01.892Z,4.07
2023-02-17T07:52:30.732Z,3.50
2023-02-17T07:54:59.324Z,3.13
2023-02-17T07:57:28.089Z,3.33
2023-02-17T07:59:56.430Z,2.95
2023-02-17T08:02:24.852Z,3.97
2023-02-17T08:04:54.652Z,3.53
2023-02-17T08:07:23.058Z,3.83
2023-02-17T08:10:08.914Z,3.92
2023-02-17T08:12:55.279Z,3.13
2023-02-17T08:15:23.861Z,3.55
2023-02-17T08:17:53.324Z,3.28
2023-02-17T08:20:23.168Z,2.58
2023-02-17T08:22:51.492Z,3.13
2023-02-17T08:25:20.289Z,2.72
2023-02-17T08:27:48.725Z,2.67
2023-02-17T08:30:17.316Z,2.50
2023-02-17T08:32:47.686Z,2.05
2023-02-17T08:35:17.955Z,2.17
2023-02-17T08:37:48.162Z,2.47
2023-02-17T08:40:17.069Z,1.80
2023-02-17T08:42:45.452Z,2.00
2023-02-17T08:45:15.101Z,2.22
2023-02-17T08:47:44.718Z,2.08
2023-02-17T08:50:17.520Z,1.70
2023-02-17T08:52:47.345Z,2.25
2023-02-17T08:55:18.510Z,2.00
2023-02-17T08:57:47.184Z,2.13
2023-02-17T09:00:17.356Z,2.47
2023-02-17T09:02:46.035Z,1.80
2023-02-17T09:05:15.192Z,3.08
2023-02-17T09:07:43.767Z,2.58
2023-02-17T09:10:15.990Z,1.63
2023-02-17T09:12:44.340Z,1.30
2023-02-17T09:15:12.822Z,1.92
2023-02-17T09:17:42.681Z,1.98
2023-02-17T09:20:24.052Z,2.05
2023-02-17T09:22:53.415Z,1.90
2023-02-17T09:25:23.386Z,1.90
2023-02-17T09:27:51.937Z,2.15
2023-02-17T09:30:20.563Z,1.70
2023-02-17T09:32:49.387Z,1.42
2023-02-17T09:35:19.565Z,1.40
2023-02-17T09:37:47.952Z,1.33
2023-02-17T09:40:20.431Z,1.70
2023-02-17T09:42:50.745Z,1.63
2023-02-17T09:45:23.418Z,1.42
2023-02-17T09:47:56.279Z,1.70
2023-02-17T09:50:28.764Z,1.85
2023-02-17T09:53:03.178Z,1.65
2023-02-17T09:55:35.622Z,1.38
2023-02-17T09:58:12.591Z,1.00
2023-02-17T10:00:45.675Z,1.02
2023-02-17T10:03:20.418Z,1.05
2023-02-17T10:05:55.612Z,0.80
2023-02-17T10:08:28.216Z,0.60
2023-02-17T10:11:00.763Z,0.80
2023-02-17T10:13:35.500Z,1.20
2023-02-17T10:16:09.054Z,1.17
2023-02-17T10:18:42.992Z,0.90
2023-02-17T10:21:19.515Z,1.00
2023-02-17T10:23:48.170Z,1.10
2023-02-17T10:26:25.827Z,1.08
2023-02-17T10:29:03.259Z,1.00
2023-02-17T10:31:44.551Z,0.75
2023-02-17T10:34:21.394Z,0.90
2023-02-17T10:36:58.324Z,0.50
2023-02-17T10:39:37.706Z,0.70
2023-02-17T10:42:07.624Z,0.60
2023-02-17T10:44:39.369Z,0.52
2023-02-17T10:47:08.783Z,0.70
2023-02-17T10:49:42.448Z,0.73
2023-02-17T10:52:15.469Z,0.90
2023-02-17T10:54:48.272Z,1.05
2023-02-17T10:57:18.375Z,0.90
2023-02-17T10:59:51.660Z,0.50
2023-02-17T11:02:24.211Z,0.70
2023-02-17T11:04:55.955Z,0.70
2023-02-17T11:07:33.684Z,0.75
2023-02-17T11:10:04.612Z,0.60
2023-02-17T11:12:40.422Z,0.60
2023-02-17T11:15:19.411Z,0.50
2023-02-17T11:17:49.952Z,0.73
2023-02-17T11:20:34.811Z,0.60
2023-02-17T11:23:25.171Z,0.63
2023-02-17T11:26:03.247Z,0.73
2023-02-17T11:28:31.753Z,0.63
2023-02-17T11:31:05.150Z,0.55
2023-02-17T11:33:36.632Z,0.40
2023-02-17T11:36:07.612Z,0.47
2023-02-17T11:38:45.002Z,0.43
2023-02-17T11:41:13.452Z,0.40
2023-02-17T11:43:53.329Z,0.40
2023-02-17T11:46:34.305Z,0.30
2023-02-17T11:49:36.105Z,0.47
2023-02-17T11:52:17.803Z,0.50
2023-02-17T11:54:58.118Z,0.50
2023-02-17T11:57:38.078Z,0.70
2023-02-17T12:00:17.802Z,0.52
2023-02-17T12:03:25.583Z,0.32
2023-02-17T12:06:03.613Z,0.43
2023-02-17T12:08:47.128Z,0.57
2023-02-17T12:11:23.008Z,0.88
2023-02-17T12:14:01.721Z,0.63
2023-02-17T12:16:42.237Z,0.50
2023-02-17T12:19:38.246Z,0.68
2023-02-17T12:22:17.575Z,0.40
2023-02-17T12:24:59.259Z,1.42
2023-02-17T12:27:45.380Z,0.50
2023-02-17T12:30:27.659Z,0.50
2023-02-17T12:33:17.214Z,0.40
2023-02-17T12:35:53.155Z,0.35
2023-02-17T12:38:27.597Z,0.50
2023-02-17T12:41:06.699Z,1.02
2023-02-17T12:43:41.659Z,0.30
2023-02-17T12:46:13.925Z,0.30
2023-02-17T12:48:47.440Z,0.30
2023-02-17T12:51:24.854Z,0.28
2023-02-17T12:53:58.339Z,0.30
2023-02-17T12:56:50.656Z,0.40
2023-02-17T12:59:21.226Z,0.30
2023-02-17T13:01:57.971Z,0.30
2023-02-17T13:04:28.439Z,0.35
2023-02-17T13:07:23.762Z,0.30
2023-02-17T13:09:53.087Z,0.30
2023-02-17T13:12:41.737Z,0.30
2023-02-17T13:15:31.045Z,0.20
2023-02-17T13:18:03.672Z,0.30
2023-02-17T13:20:54.710Z,0.22
2023-02-17T13:23:46.337Z,0.30
2023-02-17T13:26:25.972Z,0.30
2023-02-17T13:29:07.991Z,0.20
2023-02-17T13:31:47.605Z,0.20
2023-02-17T13:34:30.497Z,0.20
2023-02-17T13:37:01.774Z,0.22
2023-02-17T13:39:36.763Z,0.40
2023-02-17T13:42:07.505Z,0.20
2023-02-17T13:44:40.403Z,0.20
2023-02-17T13:47:17.042Z,0.20
2023-02-17T13:49:54.211Z,0.20
2023-02-17T13:52:25.378Z,0.30
2023-02-17T13:54:56.849Z,0.38
2023-02-17T13:57:30.124Z,0.45
2023-02-17T14:00:24.657Z,0.30
2023-02-17T14:02:55.249Z,0.20
2023-02-17T14:05:28.511Z,0.38
2023-02-17T14:08:01.507Z,0.32
2023-02-17T14:10:31.691Z,0.20
2023-02-17T14:13:00.216Z,0.40
2023-02-17T14:15:31.037Z,0.47
2023-02-17T14:17:59.418Z,0.40
2023-02-17T14:20:34.272Z,0.40
2023-02-17T14:23:05.802Z,0.50
2023-02-17T14:25:38.621Z,0.60
2023-02-17T14:28:19.670Z,0.50
2023-02-17T14:30:48.339Z,0.40
2023-02-17T14:33:25.384Z,0.40
2023-02-17T14:35:56.461Z,0.50
2023-02-17T14:38:26.519Z,0.77
2023-02-17T14:40:57.076Z,0.50
2023-02-17T14:43:26.040Z,0.57
2023-02-17T14:45:54.697Z,0.85
2023-02-17T14:48:23.150Z,0.60
2023-02-17T14:50:54.173Z,0.85
2023-02-17T14:53:26.941Z,0.60
2023-02-17T14:56:00.987Z,0.70
2023-02-17T14:58:31.470Z,1.00
2023-02-17T15:01:00.826Z,0.80
2023-02-17T15:03:29.259Z,0.80
2023-02-17T15:05:57.923Z,0.60
2023-02-17T15:08:32.244Z,1.08
2023-02-17T15:11:02.390Z,1.02
2023-02-17T15:13:31.808Z,0.70
2023-02-17T15:16:00.845Z,1.20
2023-02-17T15:18:29.210Z,1.15
2023-02-17T15:20:58.693Z,1.10
2023-02-17T15:23:27.803Z,1.40
2023-02-17T15:25:57.392Z,2.28
2023-02-17T15:28:27.233Z,1.30
2023-02-17T15:30:57.028Z,0.80
2023-02-17T15:33:26.118Z,1.10
2023-02-17T15:35:55.666Z,0.82
2023-02-17T15:38:25.153Z,1.35
2023-02-17T15:40:56.902Z,1.08
2023-02-17T15:43:33.335Z,1.20
2023-02-17T15:46:02.955Z,1.40
2023-02-17T15:48:31.969Z,1.67
2023-02-17T15:51:00.763Z,1.60
2023-02-17T15:53:33.178Z,1.42
2023-02-17T15:56:02.159Z,1.75
2023-02-17T15:58:32.093Z,1.63
2023-02-17T16:01:04.463Z,1.75
2023-02-17T16:03:32.905Z,2.42
2023-02-17T16:06:01.433Z,2.25
2023-02-17T16:08:30.145Z,1.88
2023-02-17T16:10:58.884Z,2.28
2023-02-17T16:13:28.450Z,2.03
2023-02-17T16:15:59.714Z,3.35
2023-02-17T16:18:29.000Z,2.60
2023-02-17T16:20:58.403Z,2.42
2023-02-17T16:23:27.264Z,2.45
2023-02-17T16:25:55.647Z,1.83
2023-02-17T16:28:24.128Z,2.42
2023-02-17T16:30:52.474Z,2.50
2023-02-17T16:33:22.988Z,2.22
2023-02-17T16:35:52.436Z,1.98
2023-02-17T16:38:23.607Z,2.42
2023-02-17T16:40:54.889Z,3.78
2023-02-17T16:43:25.440Z,2.85
2023-02-17T16:45:56.159Z,2.80
2023-02-17T16:48:28.548Z,3.20
2023-02-17T16:50:57.469Z,2.72
2023-02-17T16:53:26.288Z,3.13
2023-02-17T16:55:56.307Z,3.35
2023-02-17T16:58:27.277Z,2.95
2023-02-17T17:00:57.084Z,3.83
2023-02-17T17:03:27.041Z,2.78
2023-02-17T17:05:56.176Z,3.00
2023-02-17T17:08:24.488Z,3.42
2023-02-17T17:10:53.094Z,4.68
2023-02-17T17:13:21.436Z,3.08
2023-02-17T17:15:50.164Z,3.53
2023-02-17T17:18:21.572Z,3.10
2023-02-17T17:20:51.633Z,3.47
2023-02-17T17:23:20.217Z,3.00
2023-02-17T17:25:48.815Z,3.30
2023-02-17T17:28:20.102Z,5.28
2023-02-17T17:30:49.165Z,3.72
2023-02-17T17:33:17.869Z,4.25
2023-02-17T17:35:46.267Z,4.30
2023-02-17T17:38:17.057Z,4.05
2023-02-17T17:40:53.593Z,3.65
2023-02-17T17:43:24.131Z,4.18
2023-02-17T17:45:53.270Z,5.18
2023-02-17T17:48:21.899Z,5.20
2023-02-17T17:50:50.905Z,3.65
2023-02-17T17:53:20.689Z,4.22
2023-02-17T17:55:49.606Z,4.80
2023-02-17T17:58:18.087Z,6.13
2023-02-17T18:00:46.600Z,8.00
2023-02-17T18:03:15.619Z,5.50
2023-02-17T18:05:44.131Z,6.97
2023-02-17T18:08:13.198Z,6.63
2023-02-17T18:10:44.075Z,8.25
2023-02-17T18:13:13.532Z,6.55
2023-02-17T18:15:42.719Z,6.55
2023-02-17T18:18:12.553Z,6.75
2023-02-17T18:20:41.080Z,7.57
2023-02-17T18:23:09.516Z,9.90
2023-02-17T18:25:38.088Z,11.07
2023-02-17T18:28:08.355Z,8.85
2023-02-17T18:30:36.883Z,7.85
2023-02-17T18:33:05.847Z,9.35
2023-02-17T18:35:36.010Z,8.38
2023-02-17T18:38:06.108Z,7.32
2023-02-17T18:40:34.726Z,6.63
2023-02-17T18:43:03.845Z,9.70
2023-02-17T18:45:34.235Z,7.28
2023-02-17T18:48:03.436Z,6.32
2023-02-17T18:50:33.150Z,10.73
2023-02-17T18:53:03.567Z,9.63
2023-02-17T18:55:33.343Z,7.32
2023-02-17T18:58:01.794Z,9.60
2023-02-17T19:00:30.606Z,9.10
2023-02-17T19:03:00.566Z,11.35
2023-02-17T19:05:29.858Z,9.60
2023-02-17T19:07:58.685Z,10.63
2023-02-17T19:10:27.127Z,9.77
2023-02-17T19:12:55.626Z,9.95
2023-02-17T19:15:24.072Z,9.85
2023-02-17T19:17:56.583Z,9.65
2023-02-17T19:20:29.049Z,9.45
2023-02-17T19:22:57.404Z,9.27
2023-02-17T19:25:26.496Z,9.32
2023-02-17T19:27:54.892Z,9.23
2023-02-17T19:30:23.510Z,7.80
2023-02-17T19:32:54.919Z,9.38
2023-02-17T19:35:23.346Z,9.50
2023-02-17T19:37:53.124Z,9.38
2023-02-17T19:40:21.733Z,11.38
2023-02-17T19:42:50.127Z,12.07
2023-02-17T19:45:18.649Z,13.13
2023-02-17T19:47:47.048Z,12.88
2023-02-17T19:50:17.531Z,11.70
2023-02-17T19:52:46.168Z,11.18
2023-02-17T19:55:16.580Z,10.45
2023-02-17T19:57:44.939Z,11.05
2023-02-17T20:00:14.733Z,10.43
2023-02-17T20:02:43.302Z,11.00
2023-02-17T20:05:11.932Z,11.00
2023-02-17T20:07:40.444Z,11.48
2023-02-17T20:10:11.143Z,10.90
2023-02-17T20:12:40.979Z,11.57
2023-02-17T20:15:10.292Z,11.10
2023-02-17T20:17:39.293Z,13.10
2023-02-17T20:20:10.543Z,12.68
2023-02-17T20:22:39.034Z,12.25
2023-02-17T20:25:08.776Z,12.55
2023-02-17T20:27:37.192Z,13.05
2023-02-17T20:30:08.982Z,10.50
2023-02-17T20:32:37.868Z,11.63
2023-02-17T20:35:06.764Z,12.90
2023-02-17T20:37:35.191Z,12.25
2023-02-17T20:40:05.226Z,12.23
2023-02-17T20:42:33.748Z,11.43
2023-02-17T20:45:02.698Z,12.32
2023-02-17T20:47:32.583Z,12.07
2023-02-17T20:50:01.024Z,12.13
2023-02-17T20:52:30.326Z,12.23
2023-02-17T20:54:58.826Z,11.82
2023-02-17T20:57:28.251Z,12.85
2023-02-17T20:59:56.611Z,12.50
2023-02-17T21:02:25.014Z,12.45
2023-02-17T21:04:56.347Z,12.75
2023-02-17T21:07:24.784Z,12.68
2023-02-17T21:09:53.219Z,12.65
2023-02-17T21:12:21.607Z,12.38
2023-02-17T21:14:50.060Z,11.65
2023-02-17T21:17:19.679Z,11.57
2023-02-17T21:19:48.610Z,12.27
2023-02-17T21:22:18.483Z,13.05
2023-02-17T21:24:47.532Z,12.60
2023-02-17T21:27:16.000Z,13.63
2023-02-17T21:29:44.393Z,12.57
2023-02-17T21:32:12.841Z,11.63
2023-02-17T21:34:41.919Z,12.15
2023-02-17T21:37:10.475Z,12.50
2023-02-17T21:39:40.352Z,13.63
2023-02-17T21:42:08.741Z,12.27
2023-02-17T21:44:52.361Z,11.55
2023-02-17T21:47:21.089Z,11.90
2023-02-17T21:49:53.497Z,11.52
2023-02-17T21:52:23.045Z,12.57
2023-02-17T21:54:53.232Z,11.90
2023-02-17T21:57:21.723Z,13.10
2023-02-17T21:59:50.123Z,12.68
2023-02-17T22:02:18.737Z,12.07
2023-02-17T22:04:47.264Z,12.77
2023-02-17T22:07:15.894Z,12.93
2023-02-17T22:09:44.337Z,13.27
2023-02-17T22:12:14.072Z,13.38
2023-02-17T22:14:42.474Z,13.40
2023-02-17T22:17:10.810Z,13.13
2023-02-17T22:19:39.197Z,11.65
2023-02-17T22:22:07.629Z,12.18
2023-02-17T22:24:36.474Z,12.57
2023-02-17T22:27:05.418Z,13.05
2023-02-17T22:29:35.189Z,11.95
2023-02-17T22:32:04.564Z,12.48
2023-02-17T22:34:33.128Z,12.85
2023-02-17T22:37:01.485Z,14.02
2023-02-17T22:39:30.443Z,13.73
2023-02-17T22:41:58.855Z,13.63
2023-02-17T22:44:27.370Z,13.25
2023-02-17T22:46:57.199Z,13.05
2023-02-17T22:49:25.534Z,12.50
2023-02-17T22:51:53.922Z,13.65
2023-02-17T22:54:22.235Z,14.43
2023-02-17T22:56:50.625Z,14.95
2023-02-17T22:59:19.052Z,12.50
2023-02-17T23:01:47.486Z,12.48
2023-02-17T23:04:17.931Z,13.68
2023-02-17T23:06:46.488Z,11.75
2023-02-17T23:09:17.706Z,12.65
2023-02-17T23:11:53.939Z,11.80
2023-02-17T23:14:26.140Z,13.07
2023-02-17T23:16:56.614Z,12.85
2023-02-17T23:19:26.543Z,12.25
2023-02-17T23:21:57.677Z,13.35
2023-02-17T23:24:27.327Z,12.30
2023-02-17T23:26:56.983Z,12.90
2023-02-17T23:29:25.949Z,13.60
2023-02-17T23:31:54.649Z,13.30
2023-02-17T23:34:23.270Z,12.65
2023-02-17T23:36:53.072Z,11.90
2023-02-17T23:39:21.561Z,13.02
2023-02-17T23:41:50.082Z,12.55
2023-02-17T23:44:19.060Z,12.75
2023-02-17T23:46:47.922Z,14.45
2023-02-17T23:49:18.261Z,14.75
2023-02-17T23:51:47.990Z,15.55
2023-02-17T23:54:18.209Z,16.13
2023-02-17T23:56:46.633Z,15.10
2023-02-17T23:59:15.125Z,14.45
